Time,TemperatureF,DewpointF,PressureIn,WindDirection,WindDirectionDegrees,WindSpeedMPH,WindSpeedGustMPH,Humidity,HourlyPrecipIn,Conditions,Clouds,dailyrainin,SolarRadiationWatts/m^2,SoftwareType,DateUTC
2013-02-13 00:02:00,52.0,49.0,-100.00,NNW,335,4.0,5.0,89,0.02,,,0.02,0.000000,,2013-02-13 05:02:00,
2013-02-13 00:32:00,51.0,49.0,-100.00,NNW,348,3.0,4.0,93,0.05,,,0.07,0.000000,,2013-02-13 05:32:00,
2013-02-13 00:42:00,51.0,49.0,-100.00,NNW,348,3.0,4.0,93,0.05,,,0.07,0.000000,,2013-02-13 05:42:00,
2013-02-13 00:52:00,51.0,49.0,-100.00,NNW,348,3.0,4.0,93,0.05,,,0.07,0.000000,,2013-02-13 05:52:00,
2013-02-13 01:02:00,51.0,49.0,-100.00,NNW,348,3.0,4.0,93,0.05,,,0.07,0.000000,,2013-02-13 06:02:00,
2013-02-13 01:32:00,50.0,48.0,-100.00,North,350,2.0,5.0,93,0.06,,,0.13,0.000000,,2013-02-13 06:32:00,
2013-02-13 01:42:00,50.0,48.0,-100.00,North,350,2.0,5.0,93,0.06,,,0.13,0.000000,,2013-02-13 06:42:00,
2013-02-13 01:52:00,50.0,48.0,-100.00,North,350,2.0,5.0,93,0.06,,,0.13,0.000000,,2013-02-13 06:52:00,
2013-02-13 02:02:00,50.0,48.0,-100.00,North,350,2.0,5.0,93,0.06,,,0.13,0.000000,,2013-02-13 07:02:00,
2013-02-13 02:32:00,50.0,48.0,-100.00,ENE,78,2.0,6.0,94,0.07,,,0.20,0.000000,,2013-02-13 07:32:00,
2013-02-13 02:42:00,50.0,48.0,-100.00,ENE,78,2.0,6.0,94,0.07,,,0.20,0.000000,,2013-02-13 07:42:00,
2013-02-13 02:52:00,50.0,48.0,-100.00,ENE,78,2.0,6.0,94,0.07,,,0.20,0.000000,,2013-02-13 07:52:00,
2013-02-13 03:01:00,50.0,48.0,-100.00,ENE,78,2.0,6.0,94,0.07,,,0.20,0.000000,,2013-02-13 08:01:00,
2013-02-13 03:32:00,48.0,45.0,-100.00,ENE,69,5.0,9.0,91,0.02,,,0.22,0.000000,,2013-02-13 08:32:00,
2013-02-13 03:43:00,48.0,45.0,-100.00,ENE,69,5.0,9.0,91,0.02,,,0.22,0.000000,,2013-02-13 08:43:00,
2013-02-13 03:52:00,48.0,45.0,-100.00,ENE,69,5.0,9.0,91,0.02,,,0.22,0.000000,,2013-02-13 08:52:00,
2013-02-13 04:02:00,48.0,45.0,-100.00,ENE,69,5.0,9.0,91,0.02,,,0.22,0.000000,,2013-02-13 09:02:00,
2013-02-13 04:32:00,48.0,46.0,-100.00,NNE,33,4.0,9.0,92,0.08,,,-99.99,0.000000,,2013-02-13 09:32:00,
2013-02-13 04:42:00,48.0,46.0,-100.00,NNE,33,4.0,9.0,92,0.08,,,-99.99,0.000000,,2013-02-13 09:42:00,
2013-02-13 04:52:00,48.0,46.0,-100.00,NNE,33,4.0,9.0,92,0.08,,,-99.99,0.000000,,2013-02-13 09:52:00,
2013-02-13 05:01:00,48.0,46.0,-100.00,NNE,33,4.0,9.0,92,0.08,,,-99.99,0.000000,,2013-02-13 10:01:00,
2013-02-13 05:32:00,47.0,45.0,-100.00,NE,50,5.0,9.0,93,0.07,,,-99.99,0.000000,,2013-02-13 10:32:00,
2013-02-13 05:42:00,47.0,45.0,-100.00,NE,50,5.0,9.0,93,0.07,,,-99.99,0.000000,,2013-02-13 10:42:00,
2013-02-13 05:52:00,47.0,45.0,-100.00,NE,50,5.0,9.0,93,0.07,,,-99.99,0.000000,,2013-02-13 10:52:00,
2013-02-13 06:01:00,47.0,45.0,-100.00,NE,50,5.0,9.0,93,0.07,,,-99.99,0.000000,,2013-02-13 11:01:00,
2013-02-13 06:32:00,47.0,45.0,-100.00,ENE,58,6.0,11.0,94,0.01,,,-99.99,0.000000,,2013-02-13 11:32:00,
2013-02-13 06:42:00,47.0,45.0,-100.00,ENE,58,6.0,11.0,94,0.01,,,-99.99,0.000000,,2013-02-13 11:42:00,
2013-02-13 06:52:00,47.0,45.0,-100.00,ENE,58,6.0,11.0,94,0.01,,,-99.99,0.000000,,2013-02-13 11:52:00,
2013-02-13 07:02:00,47.0,45.0,-100.00,ENE,58,6.0,11.0,94,0.01,,,-99.99,0.000000,,2013-02-13 12:02:00,
2013-02-13 07:32:00,47.0,46.0,-100.00,NNE,18,4.0,8.0,95,0.04,,,-99.99,0.000000,,2013-02-13 12:32:00,
2013-02-13 07:42:00,47.0,46.0,-100.00,NNE,18,4.0,8.0,95,0.04,,,-99.99,0.000000,,2013-02-13 12:42:00,
2013-02-13 07:52:00,47.0,46.0,-100.00,NNE,18,4.0,8.0,95,0.04,,,-99.99,0.000000,,2013-02-13 12:52:00,
2013-02-13 08:02:00,47.0,46.0,-100.00,NNE,18,4.0,8.0,95,0.04,,,-99.99,0.000000,,2013-02-13 13:02:00,
2013-02-13 08:32:00,48.0,47.0,-100.00,NE,38,6.0,9.0,95,0.02,,,0.44,9.000000,,2013-02-13 13:32:00,
2013-02-13 08:42:00,48.0,47.0,-100.00,NE,38,6.0,9.0,95,0.02,,,0.44,9.000000,,2013-02-13 13:42:00,
2013-02-13 08:52:00,48.0,47.0,-100.00,NE,38,6.0,9.0,95,0.02,,,0.44,9.000000,,2013-02-13 13:52:00,
2013-02-13 09:01:00,48.0,47.0,-100.00,NE,38,6.0,9.0,95,0.02,,,0.44,9.000000,,2013-02-13 14:01:00,
2013-02-13 09:32:00,48.0,47.0,-100.00,NNE,29,5.0,11.0,96,0.00,,,0.44,17.000000,,2013-02-13 14:32:00,
2013-02-13 09:42:00,48.0,47.0,-100.00,NNE,29,5.0,11.0,96,0.00,,,0.44,17.000000,,2013-02-13 14:42:00,
2013-02-13 09:52:00,48.0,47.0,-100.00,NNE,29,5.0,11.0,96,0.00,,,0.44,17.000000,,2013-02-13 14:52:00,
2013-02-13 10:02:00,48.0,47.0,-100.00,NNE,29,5.0,11.0,96,0.00,,,0.44,17.000000,,2013-02-13 15:02:00,
2013-02-13 10:32:00,49.0,48.0,-100.00,NNE,28,7.0,12.0,96,0.01,,,0.45,43.000000,,2013-02-13 15:32:00,
2013-02-13 10:42:00,49.0,48.0,-100.00,NNE,28,7.0,12.0,96,0.01,,,0.45,43.000000,,2013-02-13 15:42:00,
2013-02-13 10:52:00,49.0,48.0,-100.00,NNE,28,7.0,12.0,96,0.01,,,0.45,43.000000,,2013-02-13 15:52:00,
2013-02-13 11:02:00,49.0,48.0,-100.00,NNE,28,7.0,12.0,96,0.01,,,0.45,43.000000,,2013-02-13 16:02:00,
2013-02-13 11:32:00,49.0,48.0,-100.00,North,353,7.0,13.0,96,0.01,,,0.46,92.000000,,2013-02-13 16:32:00,
2013-02-13 11:42:00,49.0,48.0,-100.00,North,353,7.0,13.0,96,0.01,,,0.46,92.000000,,2013-02-13 16:42:00,
2013-02-13 11:52:00,49.0,48.0,-100.00,North,353,7.0,13.0,96,0.01,,,0.46,92.000000,,2013-02-13 16:52:00,
2013-02-13 12:02:00,49.0,48.0,-100.00,North,353,7.0,13.0,96,0.01,,,0.46,92.000000,,2013-02-13 17:02:00,
2013-02-13 12:32:00,52.0,51.0,-100.00,NNE,22,6.0,13.0,95,0.00,,,0.46,227.000000,,2013-02-13 17:32:00,
2013-02-13 12:42:00,52.0,51.0,-100.00,NNE,22,6.0,13.0,95,0.00,,,0.46,227.000000,,2013-02-13 17:42:00,
2013-02-13 12:52:00,52.0,51.0,-100.00,NNE,22,6.0,13.0,95,0.00,,,0.46,227.000000,,2013-02-13 17:52:00,
2013-02-13 13:02:00,52.0,51.0,-100.00,NNE,22,6.0,13.0,95,0.00,,,0.46,227.000000,,2013-02-13 18:02:00,
2013-02-13 13:32:00,53.0,51.0,-100.00,North,0,3.0,8.0,94,0.00,,,-99.99,246.000000,,2013-02-13 18:32:00,
2013-02-13 13:42:00,53.0,51.0,-100.00,North,0,3.0,8.0,94,0.00,,,-99.99,246.000000,,2013-02-13 18:42:00,
2013-02-13 13:52:00,53.0,51.0,-100.00,North,0,3.0,8.0,94,0.00,,,-99.99,246.000000,,2013-02-13 18:52:00,
2013-02-13 14:01:00,53.0,51.0,-100.00,North,0,3.0,8.0,94,0.00,,,-99.99,246.000000,,2013-02-13 19:01:00,
2013-02-13 14:32:00,55.0,53.0,-100.00,WSW,257,3.0,5.0,92,0.00,,,0.46,179.000000,,2013-02-13 19:32:00,
2013-02-13 14:42:00,55.0,53.0,-100.00,WSW,257,3.0,5.0,92,0.00,,,0.46,179.000000,,2013-02-13 19:42:00,
2013-02-13 14:52:00,55.0,53.0,-100.00,WSW,257,3.0,5.0,92,0.00,,,0.46,179.000000,,2013-02-13 19:52:00,
2013-02-13 15:02:00,55.0,53.0,-100.00,WSW,257,3.0,5.0,92,0.00,,,0.46,179.000000,,2013-02-13 20:02:00,
2013-02-13 15:32:00,54.0,52.0,-100.00,SSW,209,5.0,9.0,94,0.00,,,-99.99,151.000000,,2013-02-13 20:32:00,
2013-02-13 15:42:00,54.0,52.0,-100.00,SSW,209,5.0,9.0,94,0.00,,,-99.99,151.000000,,2013-02-13 20:42:00,
2013-02-13 15:52:00,54.0,52.0,-100.00,SSW,209,5.0,9.0,94,0.00,,,-99.99,151.000000,,2013-02-13 20:52:00,
2013-02-13 16:02:00,54.0,52.0,-100.00,SSW,209,5.0,9.0,94,0.00,,,-99.99,151.000000,,2013-02-13 21:02:00,
2013-02-13 16:32:00,53.0,52.0,-100.00,WSW,241,6.0,13.0,95,0.00,,,0.46,61.000000,,2013-02-13 21:32:00,
2013-02-13 16:43:00,53.0,52.0,-100.00,WSW,241,6.0,13.0,95,0.00,,,0.46,61.000000,,2013-02-13 21:43:00,
2013-02-13 16:52:00,53.0,52.0,-100.00,WSW,241,6.0,13.0,95,0.00,,,0.46,61.000000,,2013-02-13 21:52:00,
2013-02-13 17:02:00,53.0,52.0,-100.00,WSW,241,6.0,13.0,95,0.00,,,0.46,61.000000,,2013-02-13 22:02:00,
2013-02-13 17:32:00,54.0,53.0,-100.00,SW,217,7.0,-999.0,96,0.00,,,0.46,,,2013-02-13 22:32:00,
2013-02-13 17:42:00,54.0,53.0,-100.00,SW,217,7.0,-999.0,96,0.00,,,0.46,,,2013-02-13 22:42:00,
2013-02-13 17:52:00,54.0,53.0,-100.00,SW,217,7.0,-999.0,96,0.00,,,0.46,,,2013-02-13 22:52:00,
2013-02-13 18:01:00,54.0,53.0,-100.00,SW,217,7.0,-999.0,96,0.00,,,0.46,,,2013-02-13 23:01:00,